Startpagina
METAR-TAF:

METAR-TAF

Vliegvelden :

Katima Mulilo, Namibië

breedte: 17-38-04S, lengte: 024-10-36E, hoogte: 985 m

Actueel weer

Dit bericht is 59 minuten geleden gemaakt, om 03:00 UTC
Wind 1 kt uit het noordwesten
Temperatuur 4°C
Vochtigheid 81%
Druk 1024 hPa

METAR: FYKM 130300Z AUTO 32001KT //// // ////// 04/01 Q1024

Tijdstip: 05:59 (03:59 UTC)

Verwachting

Dit bericht is 1 uur en het 59 minuten geleden gemaakt, om 02:00 UTC
Verwachting geldig van 13 om 03 UTC tot 13 om 12 UTC
Wind kt uit het noorden
Zicht 10 km of meer
geen wolken onder 1500 m en geen cumulonimbus
Wijzigt naar
van 13 om 06 UTC tot 13 om 08 UTC
Wind 4 kt uit het oostzuidoosten

TAF: FYKM 130200Z 1303/1312 00000KT CAVOK BECMG 1306/1308 11004KT

Waarnemingen en weersverwachtingen van meer dan 4000 vliegvelden (METAR en TAF).

De beschikbare stations zijn de gele en rode punten op de kaart.

Ga met uw muis naar het station om de naam te zien.

Klik dan om waarnemingen en weersverwachtingen te zien.

kaart wijzigen: klik op de groene knoppen met een zwart kruis om in te zoomen, op de groene knop met een streepje om uit te zoomen of op de groene pijlen voor aangrenzende kaarten.


METAR-TAF: